Time;durP1;ratioP1;P1;durP2;ratioP2;P2;SDS_P1;SDS_P2;PMS_P1;PMS_P2;Temp;Humidity;BMP_temperature;BMP_pressure;BME280_temperature;BME280_humidity;BME280_pressure;Samples;Min_cycle;Max_cycle;Signal;HPM_P1;HPM_P2
2022/10/23 00:02:25;;;;;;;19.83;10.88;;;;;;;11.44;100.00;101495.25;7384996;19;20010;-73
2022/10/23 00:04:55;;;;;;;23.17;11.75;;;;;;;11.42;100.00;101499.63;7386649;19;20017;-72
2022/10/23 00:07:25;;;;;;;17.65;11.20;;;;;;;11.42;100.00;101486.50;7385661;19;20086;-73
2022/10/23 00:09:56;;;;;;;18.83;11.85;;;;;;;11.42;100.00;101489.13;7386256;19;20046;-72
2022/10/23 00:12:29;;;;;;;18.80;10.65;;;;;;;11.44;100.00;101489.13;7381247;19;20023;-72
2022/10/23 00:14:59;;;;;;;20.38;11.88;;;;;;;11.42;100.00;101497.00;7384688;19;20015;-72
2022/10/23 00:17:31;;;;;;;19.83;11.20;;;;;;;11.43;100.00;101485.66;7384316;19;20018;-72
2022/10/23 00:20:01;;;;;;;22.20;11.98;;;;;;;11.43;100.00;101482.13;7383515;19;20518;-72
2022/10/23 00:22:31;;;;;;;21.75;11.25;;;;;;;11.42;100.00;101488.25;7385001;19;20018;-72
2022/10/23 00:25:00;;;;;;;22.45;11.18;;;;;;;11.42;100.00;101489.13;7385867;19;20017;-72
2022/10/23 00:27:33;;;;;;;24.30;11.85;;;;;;;11.44;100.00;101482.13;7384971;19;20018;-73
2022/10/23 00:30:03;;;;;;;20.92;12.05;;;;;;;11.43;100.00;101476.88;7382722;19;20021;-72
2022/10/23 00:32:32;;;;;;;20.90;11.25;;;;;;;11.43;100.00;101487.38;7380433;19;20013;-72
2022/10/23 00:35:02;;;;;;;19.60;10.98;;;;;;;11.41;100.00;101489.97;7374950;19;20010;-72
2022/10/23 00:37:32;;;;;;;24.48;12.32;;;;;;;11.40;100.00;101488.22;7380780;19;20013;-72
2022/10/23 00:40:02;;;;;;;22.73;12.50;;;;;;;11.41;100.00;101489.97;7380715;19;20429;-72
2022/10/23 00:42:34;;;;;;;22.20;11.35;;;;;;;11.43;100.00;101487.38;7378596;19;20066;-72
2022/10/23 00:45:25;;;;;;;26.83;13.43;;;;;;;11.43;100.00;101487.38;7384614;19;20023;-73
2022/10/23 00:47:57;;;;;;;20.23;11.63;;;;;;;11.42;100.00;101486.50;7369807;19;20022;-72
2022/10/23 00:50:27;;;;;;;22.77;11.45;;;;;;;11.45;100.00;101481.28;7384277;19;20042;-72
2022/10/23 00:53:01;;;;;;;24.45;13.73;;;;;;;11.45;100.00;101480.38;7374918;19;20014;-72
2022/10/23 00:55:31;;;;;;;21.77;11.27;;;;;;;11.42;100.00;101475.09;7376984;19;20021;-72
2022/10/23 00:58:04;;;;;;;25.90;11.95;;;;;;;11.39;100.00;101475.03;7381158;19;20349;-72
2022/10/23 01:00:46;;;;;;;18.30;11.03;;;;;;;11.37;100.00;101466.25;7379226;19;20082;-72
2022/10/23 01:03:19;;;;;;;20.75;11.35;;;;;;;11.34;100.00;101467.06;7381447;19;20017;-73
2022/10/23 01:05:53;;;;;;;23.23;11.93;;;;;;;11.32;100.00;101471.41;7383038;19;20014;-72
2022/10/23 01:08:30;;;;;;;24.80;11.70;;;;;;;11.30;100.00;101474.88;7381336;19;20018;-72
2022/10/23 01:11:05;;;;;;;22.85;12.35;;;;;;;11.26;100.00;101471.28;7380619;19;20010;-72
2022/10/23 01:13:46;;;;;;;18.80;11.90;;;;;;;11.24;100.00;101464.22;7378305;19;20023;-73
2022/10/23 01:16:20;;;;;;;22.83;12.07;;;;;;;11.21;100.00;101465.06;7377889;19;20014;-70
2022/10/23 01:18:59;;;;;;;20.10;12.27;;;;;;;11.22;100.00;101463.31;7378843;19;20014;-72
2022/10/23 01:21:40;;;;;;;23.27;11.93;;;;;;;11.20;100.00;101465.91;7380986;19;20034;-70
2022/10/23 01:24:20;;;;;;;19.88;11.50;;;;;;;11.17;100.00;101460.59;7381258;19;20014;-67
2022/10/23 01:27:04;;;;;;;24.20;12.73;;;;;;;11.17;100.00;101455.34;7380548;19;20019;-69
2022/10/23 01:29:39;;;;;;;;;;;;;;;11.15;100.00;101457.06;7377067;19;20011;-69
2022/10/23 01:32:14;;;;;;;23.90;12.68;;;;;;;11.14;100.00;101464.03;7377639;19;19923;-69
2022/10/23 01:34:50;;;;;;;20.10;12.10;;;;;;;11.14;100.00;101452.66;7376125;19;20035;-69
2022/10/23 01:37:25;;;;;;;24.10;11.45;;;;;;;11.19;100.00;101456.25;7380563;19;20037;-69
2022/10/23 01:39:59;;;;;;;25.20;12.45;;;;;;;11.19;100.00;101450.13;7380525;19;20010;-69
2022/10/23 01:42:34;;;;;;;21.25;12.00;;;;;;;11.16;100.00;101437.81;7377367;19;20070;-69
2022/10/23 01:45:10;;;;;;;21.23;11.27;;;;;;;11.14;100.00;101436.91;7381724;19;20022;-69
2022/10/23 01:47:41;;;;;;;21.95;11.43;;;;;;;11.14;100.00;101432.53;7378189;19;20019;-70
2022/10/23 01:50:14;;;;;;;22.95;11.55;;;;;;;11.14;100.00;101432.53;7378691;19;20019;-67
2022/10/23 01:52:44;;;;;;;25.13;12.55;;;;;;;11.13;100.00;101429.88;7372494;19;20014;-67
2022/10/23 01:55:16;;;;;;;23.35;12.70;;;;;;;11.11;100.00;101426.34;7378122;19;20018;-71
2022/10/23 01:57:49;;;;;;;21.65;11.73;;;;;;;11.10;100.00;101425.47;7377273;19;20011;-71
2022/10/23 02:00:22;;;;;;;19.73;12.18;;;;;;;11.08;100.00;101421.03;7380683;19;20011;-71
2022/10/23 02:02:54;;;;;;;19.38;11.43;;;;;;;11.06;100.00;101418.38;7380981;19;20019;-71
2022/10/23 02:05:26;;;;;;;21.88;12.20;;;;;;;11.02;100.00;101424.41;7374906;19;20018;-71
2022/10/23 02:07:57;;;;;;;25.77;13.88;;;;;;;11.00;100.00;101417.34;7379653;19;20019;-71
2022/10/23 02:10:32;;;;;;;20.13;10.20;;;;;;;10.96;100.00;101411.16;7372427;19;20011;-68
2022/10/23 02:13:07;;;;;;;19.92;11.40;;;;;;;10.95;100.00;101412.00;7375468;19;20006;-68
2022/10/23 02:15:47;;;;;;;23.38;11.57;;;;;;;10.92;100.00;101419.81;7374067;19;20015;-68
2022/10/23 02:18:29;;;;;;;19.00;12.05;;;;;;;10.87;100.00;101420.56;7373306;19;20047;-68
2022/10/23 02:21:04;;;;;;;21.30;11.05;;;;;;;10.85;100.00;101414.41;7377604;19;20418;-68
2022/10/23 02:23:40;;;;;;;18.23;11.48;;;;;;;10.84;100.00;101410.03;7376266;19;20010;-67
2022/10/23 02:26:13;;;;;;;22.02;12.32;;;;;;;10.84;100.00;101415.25;7377477;19;20007;-68
2022/10/23 02:28:48;;;;;;;22.73;12.13;;;;;;;10.84;100.00;101404.78;7375975;19;20019;-67
2022/10/23 02:31:23;;;;;;;25.23;13.32;;;;;;;10.91;100.00;101414.53;7373624;19;20463;-67
2022/10/23 02:33:54;;;;;;;28.92;14.35;;;;;;;10.90;100.00;101399.66;7377206;19;20027;-68
2022/10/23 02:36:24;;;;;;;23.38;11.70;;;;;;;10.89;100.00;101400.50;7378221;19;20121;-68
2022/10/23 02:38:54;;;;;;;23.17;11.57;;;;;;;10.89;100.00;101398.75;7375402;19;20007;-68
2022/10/23 02:41:40;;;;;;;23.35;13.00;;;;;;;10.89;100.00;101395.25;7375184;19;20016;-68
2022/10/23 02:44:23;;;;;;;19.25;11.00;;;;;;;10.85;100.00;101380.31;7374205;19;20515;-68
2022/10/23 02:47:05;;;;;;;19.20;11.65;;;;;;;10.84;100.00;101374.16;7376066;19;20016;-68
2022/10/23 02:49:41;;;;;;;23.05;13.02;;;;;;;10.82;100.00;101374.13;7371014;19;20310;-69
2022/10/23 02:52:17;;;;;;;23.35;11.88;;;;;;;10.84;100.00;101378.53;7371568;19;20082;-68
2022/10/23 02:54:59;;;;;;;21.08;11.77;;;;;;;10.84;100.00;101370.66;7365964;19;20023;-68
2022/10/23 02:57:34;;;;;;;19.60;11.57;;;;;;;10.84;100.00;101362.78;7370283;19;20037;-68
2022/10/23 03:00:09;;;;;;;20.27;12.25;;;;;;;10.81;100.00;101343.50;7374994;19;20483;-68
2022/10/23 03:02:45;;;;;;;22.60;12.20;;;;;;;10.81;100.00;101340.88;7371879;19;20019;-68
2022/10/23 03:05:19;;;;;;;22.88;12.65;;;;;;;10.82;100.00;101342.66;7375840;19;20550;-68
2022/10/23 03:07:49;;;;;;;23.20;12.02;;;;;;;10.84;100.00;101333.94;7372722;19;20078;-68
2022/10/23 03:10:19;;;;;;;21.95;11.70;;;;;;;10.85;100.00;101333.06;7374872;19;20014;-70
2022/10/23 03:12:49;;;;;;;18.58;11.77;;;;;;;10.87;100.00;101333.97;7370348;19;20020;-71
2022/10/23 03:15:19;;;;;;;21.15;12.18;;;;;;;10.89;100.00;101334.91;7374609;19;20011;-71
2022/10/23 03:17:51;;;;;;;23.50;11.90;;;;;;;10.90;100.00;101337.56;7374431;19;20053;-71
2022/10/23 03:20:20;;;;;;;23.67;12.68;;;;;;;10.91;100.00;101333.19;7372488;19;20015;-71
2022/10/23 03:22:50;;;;;;;22.17;12.73;;;;;;;10.92;100.00;101324.47;7374167;19;20022;-71
2022/10/23 03:25:20;;;;;;;24.17;12.07;;;;;;;10.92;100.00;101327.97;7373227;19;20451;-71
2022/10/23 03:27:50;;;;;;;25.55;12.75;;;;;;;10.95;100.00;101325.41;7375463;19;20022;-73
2022/10/23 03:30:19;;;;;;;23.30;12.60;;;;;;;10.94;100.00;101330.63;7367226;19;20015;-71
2022/10/23 03:32:52;;;;;;;24.30;11.95;;;;;;;10.94;100.00;101322.75;7375449;19;20022;-71
2022/10/23 03:35:21;;;;;;;25.08;12.40;;;;;;;10.93;100.00;101315.75;7372058;19;20021;-73
2022/10/23 03:37:51;;;;;;;22.73;12.55;;;;;;;10.92;100.00;101309.59;7372452;19;20010;-72
2022/10/23 03:40:21;;;;;;;20.05;12.40;;;;;;;10.93;100.00;101300.00;7368162;19;20017;-71
2022/10/23 03:42:50;;;;;;;20.50;11.77;;;;;;;10.93;100.00;101300.00;7373101;19;20055;-71
2022/10/23 03:45:20;;;;;;;23.02;11.75;;;;;;;10.93;100.00;101289.50;7375937;19;20104;-71
2022/10/23 03:47:53;;;;;;;25.45;12.00;;;;;;;10.94;100.00;101281.66;7370292;19;20015;-72
2022/10/23 03:50:22;;;;;;;18.38;11.70;;;;;;;10.94;100.00;101283.38;7371025;19;20010;-71
2022/10/23 03:52:52;;;;;;;19.02;11.45;;;;;;;10.92;100.00;101283.34;7370392;19;20569;-73
2022/10/23 03:55:24;;;;;;;21.02;11.05;;;;;;;10.92;100.00;101277.22;7376338;19;20055;-72
2022/10/23 03:57:54;;;;;;;19.90;10.70;;;;;;;10.93;100.00;101273.75;7378053;19;20017;-71
2022/10/23 04:00:23;;;;;;;22.63;12.68;;;;;;;10.93;100.00;101271.13;7373904;19;20023;-73
2022/10/23 04:02:56;;;;;;;19.65;11.02;;;;;;;10.92;100.00;101269.34;7375596;19;20039;-71
2022/10/23 04:05:25;;;;;;;21.67;10.70;;;;;;;10.94;100.00;101272.91;7375502;19;20014;-72
2022/10/23 04:07:55;;;;;;;18.85;10.43;;;;;;;10.96;100.00;101268.56;7372540;19;20010;-71
2022/10/23 04:10:25;;;;;;;18.35;10.82;;;;;;;11.02;100.00;101271.28;7371561;19;20021;-72
2022/10/23 04:12:55;;;;;;;18.23;10.88;;;;;;;11.00;100.00;101259.88;7374875;19;20340;-72
2022/10/23 04:15:25;;;;;;;17.67;10.90;;;;;;;11.07;100.00;101265.28;7374422;19;20487;-72
2022/10/23 04:17:58;;;;;;;18.00;9.82;;;;;;;11.03;100.00;101259.94;7370455;19;20015;-72
2022/10/23 04:20:28;;;;;;;17.98;9.93;;;;;;;11.00;100.00;101244.13;7371841;19;20019;-69
2022/10/23 04:22:58;;;;;;;18.08;9.75;;;;;;;11.00;100.00;101244.13;7375486;19;20017;-69
2022/10/23 04:25:28;;;;;;;21.60;10.85;;;;;;;10.99;100.00;101237.13;7377511;19;20014;-69
2022/10/23 04:27:59;;;;;;;20.98;10.30;;;;;;;10.98;100.00;101240.59;7377364;19;20418;-68
2022/10/23 04:30:29;;;;;;;18.20;9.10;;;;;;;10.98;100.00;101238.88;7377411;19;20018;-69
2022/10/23 04:33:01;;;;;;;18.85;9.88;;;;;;;11.01;100.00;101235.41;7377573;19;20026;-69
2022/10/23 04:35:31;;;;;;;21.98;10.27;;;;;;;11.02;100.00;101231.94;7379606;19;20018;-69
2022/10/23 04:38:00;;;;;;;18.40;9.77;;;;;;;11.01;100.00;101230.16;7381897;19;20007;-69
2022/10/23 04:40:30;;;;;;;13.90;8.30;;;;;;;11.02;100.00;101226.69;7376291;19;20011;-69
2022/10/23 04:43:00;;;;;;;15.32;9.23;;;;;;;11.02;100.00;101227.56;7381607;19;20126;-68
2022/10/23 04:45:29;;;;;;;22.33;9.65;;;;;;;11.08;100.00;101232.91;7381078;19;20006;-69
2022/10/23 04:48:02;;;;;;;15.80;8.82;;;;;;;11.13;100.00;101243.50;7379518;19;20094;-69
2022/10/23 04:50:31;;;;;;;17.00;8.98;;;;;;;11.16;100.00;101240.03;7378825;19;20014;-69
2022/10/23 04:53:01;;;;;;;15.50;8.43;;;;;;;11.18;100.00;101231.34;7380370;19;20343;-69
2022/10/23 04:55:31;;;;;;;18.08;8.38;;;;;;;11.19;100.00;101230.47;7379176;19;20025;-69
2022/10/23 04:58:00;;;;;;;18.70;8.90;;;;;;;11.29;100.00;101235.03;7382347;19;20010;-69
2022/10/23 05:00:30;;;;;;;15.75;8.40;;;;;;;11.30;100.00;101228.91;7376528;19;20023;-69
2022/10/23 05:03:02;;;;;;;19.65;8.43;;;;;;;11.31;100.00;101225.44;7382786;19;20763;-69
2022/10/23 05:05:32;;;;;;;17.42;8.50;;;;;;;11.33;100.00;101218.47;7382327;19;20018;-69
2022/10/23 05:08:02;;;;;;;24.35;8.15;;;;;;;11.34;100.00;101220.22;7377550;19;20022;-69
2022/10/23 05:10:31;;;;;;;19.85;8.57;;;;;;;11.38;100.00;101210.66;7378047;19;20010;-68
2022/10/23 05:13:01;;;;;;;15.00;7.22;;;;;;;11.42;100.00;101208.09;7378558;19;20015;-68
2022/10/23 05:15:31;;;;;;;15.95;8.05;;;;;;;11.42;100.00;101217.72;7377381;19;20014;-68
2022/10/23 05:18:10;;;;;;;20.92;9.43;;;;;;;11.46;100.00;101222.13;7379168;19;20011;-68
2022/10/23 05:20:41;;;;;;;15.18;8.75;;;;;;;11.41;100.00;101224.72;7380565;19;20006;-69
2022/10/23 05:23:15;;;;;;;16.30;8.80;;;;;;;11.42;100.00;101218.59;7380028;19;20022;-68
2022/10/23 05:25:45;;;;;;;17.25;8.05;;;;;;;11.38;100.00;101208.03;7383418;19;20018;-72
2022/10/23 05:28:14;;;;;;;17.77;8.93;;;;;;;11.42;100.00;101210.72;7381422;19;20033;-72
2022/10/23 05:30:45;;;;;;;20.50;8.68;;;;;;;11.34;100.00;101211.47;7377030;19;20038;-72
2022/10/23 05:33:17;;;;;;;17.42;8.18;;;;;;;11.35;100.00;101222.00;7381995;19;20019;-72
2022/10/23 05:35:47;;;;;;;18.23;8.20;;;;;;;11.33;100.00;101218.47;7377931;19;20030;-72
2022/10/23 05:38:17;;;;;;;19.40;8.23;;;;;;;11.31;100.00;101225.44;7380908;19;20028;-71
2022/10/23 05:40:47;;;;;;;14.30;7.90;;;;;;;11.30;100.00;101223.66;7378071;19;20021;-71
2022/10/23 05:43:17;;;;;;;16.20;8.57;;;;;;;11.27;100.00;101218.38;7377681;19;20341;-71
2022/10/23 05:45:46;;;;;;;15.82;7.95;;;;;;;11.25;100.00;101209.56;7380886;19;20523;-71
2022/10/23 05:48:19;;;;;;;13.70;8.30;;;;;;;11.25;100.00;101219.19;7378375;19;20273;-72
2022/10/23 05:51:16;;;;;;;16.90;8.18;;;;;;;11.24;100.00;101205.19;7378025;19;20019;-69
2022/10/23 05:53:46;;;;;;;14.90;8.27;;;;;;;11.22;100.00;101204.28;7374190;19;20014;-68
2022/10/23 05:56:16;;;;;;;15.48;7.78;;;;;;;11.21;100.00;101191.13;7379315;19;20015;-71
2022/10/23 05:58:47;;;;;;;17.70;7.90;;;;;;;11.19;100.00;101196.34;7382200;19;20014;-72
2022/10/23 06:01:17;;;;;;;16.88;8.60;;;;;;;11.21;100.00;101192.00;7380067;19;20550;-72
2022/10/23 06:03:50;;;;;;;18.23;7.90;;;;;;;11.24;100.00;101185.91;7380406;19;20078;-72
2022/10/23 06:06:20;;;;;;;15.73;8.75;;;;;;;11.22;100.00;101185.91;7377630;19;20010;-72
2022/10/23 06:08:49;;;;;;;16.48;8.32;;;;;;;11.20;100.00;101177.13;7372073;19;20018;-72
2022/10/23 06:11:20;;;;;;;16.27;7.45;;;;;;;11.24;100.00;101178.94;7371557;19;20006;-72
2022/10/23 06:13:49;;;;;;;17.33;8.18;;;;;;;11.24;100.00;101176.31;7375692;19;20025;-72
2022/10/23 06:16:23;;;;;;;16.55;8.15;;;;;;;11.23;100.00;101169.28;7375313;19;20014;-71
2022/10/23 06:18:56;;;;;;;15.20;7.95;;;;;;;11.24;100.00;101167.53;7371053;19;20018;-72
2022/10/23 06:21:26;;;;;;;17.10;7.90;;;;;;;11.21;100.00;101164.88;7374777;19;20112;-71
2022/10/23 06:23:56;;;;;;;16.23;7.43;;;;;;;11.21;100.00;101160.50;7377472;19;20018;-71
2022/10/23 06:26:26;;;;;;;14.45;8.38;;;;;;;11.21;100.00;101163.13;7375036;19;20491;-71
2022/10/23 06:28:56;;;;;;;18.17;8.50;;;;;;;11.23;100.00;101155.28;7378247;19;20009;-71
2022/10/23 06:31:27;;;;;;;20.33;8.07;;;;;;;11.23;100.00;101152.66;7374167;19;20010;-71
2022/10/23 06:34:01;;;;;;;14.90;7.57;;;;;;;11.24;100.00;101142.16;7373360;19;20547;-72
2022/10/23 06:36:30;;;;;;;;;;;;;;;11.25;100.00;101150.94;7378278;19;20098;-68
2022/10/23 06:38:59;;;;;;;15.40;7.38;;;;;;;11.25;100.00;101146.56;7375246;19;20447;-69
2022/10/23 06:41:29;;;;;;;16.75;8.45;;;;;;;11.27;100.00;101142.22;7375597;19;20021;-68
2022/10/23 06:44:00;;;;;;;15.60;7.35;;;;;;;11.31;100.00;101132.66;7376091;19;20014;-69
2022/10/23 06:46:32;;;;;;;16.23;8.77;;;;;;;11.31;100.00;101125.66;7378189;19;20021;-69
2022/10/23 06:49:04;;;;;;;22.88;9.13;;;;;;;11.33;100.00;101125.69;7373849;19;20007;-69
2022/10/23 06:51:34;;;;;;;25.45;9.02;;;;;;;11.35;100.00;101137.97;7374054;19;20010;-69
2022/10/23 06:54:03;;;;;;;14.10;8.20;;;;;;;11.35;100.00;101131.84;7369717;19;20007;-69
2022/10/23 06:56:34;;;;;;;14.98;7.93;;;;;;;11.34;100.00;101136.19;7372019;19;20015;-68
2022/10/23 06:59:06;;;;;;;13.40;8.13;;;;;;;11.35;100.00;101137.09;7374362;19;20021;-68
2022/10/23 07:01:36;;;;;;;15.80;7.97;;;;;;;11.36;100.00;101139.72;7371976;19;20618;-68
2022/10/23 07:04:09;;;;;;;15.77;8.35;;;;;;;11.40;100.00;101125.78;7375699;19;20432;-68
2022/10/23 07:06:38;;;;;;;17.80;8.63;;;;;;;11.43;100.00;101123.22;7376030;19;20010;-68
2022/10/23 07:09:08;;;;;;;18.67;8.70;;;;;;;11.46;100.00;101117.06;7375839;19;20475;-68
2022/10/23 07:11:38;;;;;;;17.20;8.93;;;;;;;11.50;100.00;101102.25;7371159;19;20585;-69
2022/10/23 07:14:08;;;;;;;18.20;8.48;;;;;;;11.51;100.00;101098.75;7374368;19;20362;-69
2022/10/23 07:16:38;;;;;;;18.63;9.07;;;;;;;11.55;100.00;101103.19;7375249;19;20007;-68
2022/10/23 07:19:10;;;;;;;15.98;8.98;;;;;;;11.60;100.00;101115.53;7375207;19;20038;-68
2022/10/23 07:21:40;;;;;;;15.00;8.90;;;;;;;11.62;100.00;101120.81;7374406;19;20051;-69
2022/10/23 07:24:10;;;;;;;19.02;9.20;;;;;;;11.66;100.00;101117.34;7373065;19;20006;-69
2022/10/23 07:26:40;;;;;;;16.55;8.32;;;;;;;11.67;100.00;101113.88;7376048;19;20015;-71
2022/10/23 07:29:10;;;;;;;19.45;8.90;;;;;;;11.73;100.00;101119.19;7368536;19;20014;-71
2022/10/23 07:31:40;;;;;;;17.17;8.25;;;;;;;11.75;100.00;101109.59;7374556;19;20003;-71
2022/10/23 07:34:12;;;;;;;14.35;8.10;;;;;;;11.79;100.00;101106.16;7372314;19;20011;-71
2022/10/23 07:36:42;;;;;;;19.25;8.90;;;;;;;11.81;100.00;101112.31;7371758;19;20011;-71
2022/10/23 07:39:12;;;;;;;16.20;9.23;;;;;;;11.82;100.00;101097.44;7371559;19;20011;-71
2022/10/23 07:41:41;;;;;;;15.32;8.63;;;;;;;11.85;100.00;101103.63;7368068;19;20134;-71
2022/10/23 07:44:11;;;;;;;18.65;9.38;;;;;;;11.88;100.00;101098.41;7371638;19;20060;-71
2022/10/23 07:46:41;;;;;;;18.23;8.95;;;;;;;11.91;100.00;101098.44;7375103;19;20002;-71
2022/10/23 07:49:14;;;;;;;20.13;9.27;;;;;;;11.94;100.00;101093.22;7367947;19;20006;-71
2022/10/23 07:51:43;;;;;;;22.02;8.93;;;;;;;11.99;100.00;101101.16;7372994;19;20014;-71
2022/10/23 07:54:20;;;;;;;16.45;8.45;;;;;;;12.06;100.00;101087.22;7371318;19;20531;-71
2022/10/23 07:56:49;;;;;;;13.23;8.10;;;;;;;12.05;100.00;101091.59;7375712;19;20524;-71
2022/10/23 07:59:19;;;;;;;18.38;10.18;;;;;;;12.07;100.00;101079.34;7372102;19;20474;-71
2022/10/23 08:01:49;;;;;;;17.17;9.45;;;;;;;12.08;100.00;101083.75;7375177;19;20432;-71
2022/10/23 08:04:26;;;;;;;17.70;9.15;;;;;;;12.10;100.00;101086.38;7378305;19;20019;-71
2022/10/23 08:06:57;;;;;;;17.70;9.17;;;;;;;12.17;100.00;101082.97;7381917;19;20022;-72
2022/10/23 08:09:26;;;;;;;19.30;8.88;;;;;;;12.20;100.00;101084.75;7382876;19;20423;-71
2022/10/23 08:11:56;;;;;;;21.02;10.32;;;;;;;12.23;100.00;101084.78;7381448;19;20018;-71
2022/10/23 08:14:26;;;;;;;17.08;8.40;;;;;;;12.26;100.00;101079.53;7381628;19;20253;-71
2022/10/23 08:16:56;;;;;;;17.60;8.05;;;;;;;12.33;100.00;101078.75;7380151;19;20015;-71
2022/10/23 08:19:29;;;;;;;18.52;9.05;;;;;;;12.38;100.00;101071.78;7382984;19;20015;-72
2022/10/23 08:21:59;;;;;;;17.35;8.57;;;;;;;12.36;100.00;101063.00;7379087;19;20010;-71
2022/10/23 08:24:29;;;;;;;18.35;8.02;;;;;;;12.37;100.00;101063.00;7385245;19;20041;-71
2022/10/23 08:27:00;;;;;;;17.48;9.82;;;;;;;12.42;100.00;101055.16;7382054;19;20022;-71
2022/10/23 08:29:29;;;;;;;16.90;8.93;;;;;;;12.47;100.00;101050.81;7378568;19;20010;-71
2022/10/23 08:31:59;;;;;;;17.88;8.45;;;;;;;12.44;100.00;101053.41;7377418;19;20015;-71
2022/10/23 08:34:32;;;;;;;22.92;9.23;;;;;;;12.45;100.00;101047.28;7381874;19;20010;-71
2022/10/23 08:37:01;;;;;;;15.35;8.52;;;;;;;12.48;100.00;101033.28;7379568;19;20017;-71
2022/10/23 08:39:31;;;;;;;16.75;8.27;;;;;;;12.53;100.00;101036.81;7374905;19;20015;-71
2022/10/23 08:42:01;;;;;;;14.52;8.07;;;;;;;12.57;100.00;101043.84;7375581;19;20018;-71
2022/10/23 08:44:34;;;;;;;18.48;8.48;;;;;;;12.59;100.00;101050.00;7379155;19;20015;-71
2022/10/23 08:47:09;;;;;;;18.63;8.38;;;;;;;12.66;100.00;101042.19;7372629;19;20546;-71
2022/10/23 08:49:49;;;;;;;15.07;8.38;;;;;;;12.70;100.00;101030.81;7374606;19;20014;-71
2022/10/23 08:52:26;;;;;;;16.75;8.35;;;;;;;12.75;100.00;101038.75;7372795;19;20014;-71
2022/10/23 08:55:13;;;;;;;14.40;7.60;;;;;;;12.83;100.00;101037.03;7377665;19;20018;-71
2022/10/23 08:57:49;;;;;;;16.58;7.13;;;;;;;12.89;100.00;101036.22;7375427;19;20017;-71
2022/10/23 09:00:19;;;;;;;17.85;8.38;;;;;;;12.90;100.00;101032.72;7376468;19;20090;-70
2022/10/23 09:02:51;;;;;;;14.43;8.20;;;;;;;12.93;100.00;101025.72;7378836;19;20011;-71
2022/10/23 09:05:31;;;;;;;13.80;7.78;;;;;;;12.94;100.00;101029.22;7375500;19;20014;-71
2022/10/23 09:08:13;;;;;;;19.92;8.77;;;;;;;12.97;100.00;101031.88;7374801;19;20557;-70
2022/10/23 09:11:03;;;;;;;16.95;8.65;;;;;;;13.01;100.00;101026.66;7377879;19;20010;-71
2022/10/23 09:14:08;;;;;;;15.45;7.80;;;;;;;13.07;100.00;101018.78;7377644;19;20018;-71
2022/10/23 09:16:48;;;;;;;15.98;6.60;;;;;;;13.16;100.00;101010.09;7374412;19;20479;-70
2022/10/23 09:19:20;;;;;;;14.85;7.05;;;;;;;13.18;100.00;101003.06;7376972;19;20014;-71
2022/10/23 09:21:53;;;;;;;15.30;7.60;;;;;;;13.21;100.00;101005.72;7377105;19;20443;-71
2022/10/23 09:24:25;;;;;;;19.58;7.28;;;;;;;13.29;100.00;100997.88;7376638;19;20078;-71
2022/10/23 09:26:56;;;;;;;13.80;6.38;;;;;;;13.40;100.00;100989.13;7377047;19;20398;-70
2022/10/23 09:29:28;;;;;;;13.75;6.75;;;;;;;13.45;100.00;100988.28;7375535;19;20825;-70
2022/10/23 09:32:01;;;;;;;13.85;6.85;;;;;;;13.45;100.00;100980.38;7381106;19;20422;-71
2022/10/23 09:34:33;;;;;;;15.80;7.28;;;;;;;13.48;100.00;100978.63;7375354;19;20046;-71
2022/10/23 09:37:26;;;;;;;14.88;6.82;;;;;;;13.47;100.00;100974.22;7378493;19;20082;-71
2022/10/23 09:40:16;;;;;;;11.90;6.53;;;;;;;13.51;100.00;100980.41;7378003;19;20660;-70
2022/10/23 09:42:58;;;;;;;14.80;7.10;;;;;;;13.55;100.00;100975.09;7374591;19;20413;-71
2022/10/23 09:45:32;;;;;;;14.02;6.32;;;;;;;13.58;100.00;100968.97;7377250;19;20014;-72
2022/10/23 09:48:17;;;;;;;11.45;6.68;;;;;;;13.58;100.00;100958.44;7370232;19;20070;-70
2022/10/23 09:50:55;;;;;;;13.70;6.82;;;;;;;13.55;100.00;100955.78;7374374;19;20312;-70
2022/10/23 09:53:34;;;;;;;14.90;6.85;;;;;;;13.70;100.00;100956.69;7366961;19;20017;-70
2022/10/23 09:56:10;;;;;;;13.00;6.32;;;;;;;13.69;100.00;100969.88;7373433;19;20017;-71
2022/10/23 09:58:45;;;;;;;12.35;6.60;;;;;;;13.73;100.00;100963.75;7365202;19;20017;-70
2022/10/23 10:01:25;;;;;;;15.23;6.85;;;;;;;13.73;100.00;100945.28;7375499;19;20475;-70
2022/10/23 10:03:55;;;;;;;11.32;6.13;;;;;;;13.78;100.00;100945.28;7371921;19;20011;-70
2022/10/23 10:06:28;;;;;;;13.10;6.35;;;;;;;13.85;100.00;100949.69;7380730;19;20097;-70
2022/10/23 10:09:05;;;;;;;13.20;6.63;;;;;;;13.80;100.00;100949.69;7378103;19;20018;-71
2022/10/23 10:11:41;;;;;;;12.38;5.97;;;;;;;13.83;100.00;100928.63;7377348;19;20017;-70
2022/10/23 10:14:37;;;;;;;16.48;7.07;;;;;;;13.86;100.00;100930.38;7378419;19;20018;-70
2022/10/23 10:17:12;;;;;;;13.00;6.80;;;;;;;13.89;100.00;100933.91;7377904;19;20006;-70
2022/10/23 10:19:56;;;;;;;13.40;6.72;;;;;;;13.93;100.00;100927.75;7377843;19;20524;-71
2022/10/23 10:22:34;;;;;;;12.63;6.25;;;;;;;13.96;100.00;100917.19;7378896;19;20006;-71
2022/10/23 10:25:15;;;;;;;11.00;5.80;;;;;;;13.97;100.00;100913.69;7376240;19;20007;-70
2022/10/23 10:27:50;;;;;;;11.93;6.03;;;;;;;14.02;100.00;100901.38;7375580;19;20020;-71
2022/10/23 10:30:23;;;;;;;11.68;6.03;;;;;;;14.02;100.00;100896.09;7378945;19;20685;-70
2022/10/23 10:33:00;;;;;;;13.43;6.25;;;;;;;14.09;100.00;100881.16;7373652;19;20021;-71
2022/10/23 10:35:41;;;;;;;13.15;6.13;;;;;;;14.21;100.00;100877.63;7379909;19;20014;-70
2022/10/23 10:38:32;;;;;;;12.70;6.65;;;;;;;14.22;100.00;100877.63;7374566;19;20014;-70
2022/10/23 10:41:23;;;;;;;12.20;6.85;;;;;;;14.22;100.00;100866.22;7371475;19;20013;-71
2022/10/23 10:44:07;;;;;;;14.77;7.53;;;;;;;14.24;100.00;100844.22;7370811;19;20586;-71
2022/10/23 10:46:42;;;;;;;18.30;6.88;;;;;;;14.30;100.00;100844.22;7377259;19;20019;-70
2022/10/23 10:49:20;;;;;;;15.55;6.85;;;;;;;14.36;100.00;100848.59;7370296;19;20015;-71
2022/10/23 10:52:04;;;;;;;12.45;6.38;;;;;;;14.49;100.00;100833.66;7376361;19;20003;-71
2022/10/23 10:54:45;;;;;;;13.60;5.65;;;;;;;14.50;100.00;100825.72;7375482;19;20017;-71
2022/10/23 10:57:29;;;;;;;11.50;5.88;;;;;;;14.58;100.00;100817.75;7373053;19;20025;-70
2022/10/23 11:00:05;;;;;;;12.73;6.60;;;;;;;14.64;100.00;100813.34;7375842;19;20022;-71
2022/10/23 11:02:42;;;;;;;12.90;6.22;;;;;;;14.75;100.00;100812.41;7370398;19;20019;-70
2022/10/23 11:05:21;;;;;;;16.35;7.47;;;;;;;14.81;100.00;100809.75;7374236;19;20031;-71
2022/10/23 11:07:57;;;;;;;11.05;6.10;;;;;;;14.89;100.00;100819.41;7374000;19;20024;-71
2022/10/23 11:10:28;;;;;;;11.43;5.93;;;;;;;14.96;100.00;100810.56;7370713;19;20018;-71
2022/10/23 11:13:03;;;;;;;12.80;5.72;;;;;;;15.10;100.00;100804.31;7368597;19;20999;-71
2022/10/23 11:15:40;;;;;;;12.40;6.15;;;;;;;15.19;100.00;100797.22;7370527;19;20025;-71
2022/10/23 11:18:17;;;;;;;10.32;5.35;;;;;;;15.28;100.00;100793.63;7374366;19;20014;-71
2022/10/23 11:20:58;;;;;;;12.23;6.05;;;;;;;15.42;100.00;100772.41;7367082;19;20019;-70
2022/10/23 11:23:50;;;;;;;11.35;5.88;;;;;;;15.51;100.00;100765.28;7367179;19;20375;-70
2022/10/23 11:26:45;;;;;;;13.05;5.78;;;;;;;15.74;100.00;100762.44;7364456;19;20443;-71
2022/10/23 11:29:32;;;;;;;12.50;5.72;;;;;;;15.84;100.00;100771.16;7368476;19;20010;-69
2022/10/23 11:32:15;;;;;;;12.30;5.47;;;;;;;15.89;100.00;100754.38;7371536;19;20015;-71
2022/10/23 11:35:00;;;;;;;12.90;5.05;;;;;;;15.96;100.00;100758.69;7370832;19;20042;-70
2022/10/23 11:37:30;;;;;;;10.82;5.53;;;;;;;15.98;100.00;100753.41;7373608;19;20641;-71